sensor_id;sensor_type;location;lat;lon;timestamp;P1;durP1;ratioP1;P2;durP2;ratioP2
11263;SDS011;5689;48.798;9.070;2023-11-21T00:00:59;0.40;;;0.40;;
11263;SDS011;5689;48.798;9.070;2023-11-21T00:03:30;0.57;;;0.57;;
11263;SDS011;5689;48.798;9.070;2023-11-21T00:05:58;0.50;;;0.50;;
11263;SDS011;5689;48.798;9.070;2023-11-21T00:08:27;0.40;;;0.40;;
11263;SDS011;5689;48.798;9.070;2023-11-21T00:10:56;0.40;;;0.40;;
11263;SDS011;5689;48.798;9.070;2023-11-21T00:13:28;0.50;;;0.50;;
11263;SDS011;5689;48.798;9.070;2023-11-21T00:15:56;0.50;;;0.50;;
11263;SDS011;5689;48.798;9.070;2023-11-21T00:18:24;0.40;;;0.40;;
11263;SDS011;5689;48.798;9.070;2023-11-21T00:20:52;0.40;;;0.40;;
11263;SDS011;5689;48.798;9.070;2023-11-21T00:23:20;0.40;;;0.40;;
11263;SDS011;5689;48.798;9.070;2023-11-21T00:25:48;0.33;;;0.33;;
11263;SDS011;5689;48.798;9.070;2023-11-21T00:28:16;0.40;;;0.40;;
11263;SDS011;5689;48.798;9.070;2023-11-21T00:30:45;0.40;;;0.40;;
11263;SDS011;5689;48.798;9.070;2023-11-21T00:33:13;0.40;;;0.40;;
11263;SDS011;5689;48.798;9.070;2023-11-21T00:35:41;0.20;;;0.20;;
11263;SDS011;5689;48.798;9.070;2023-11-21T00:38:09;0.10;;;0.10;;
11263;SDS011;5689;48.798;9.070;2023-11-21T00:40:38;0.20;;;0.20;;
11263;SDS011;5689;48.798;9.070;2023-11-21T00:43:06;0.20;;;0.20;;
11263;SDS011;5689;48.798;9.070;2023-11-21T00:45:34;0.20;;;0.20;;
11263;SDS011;5689;48.798;9.070;2023-11-21T00:48:04;0.20;;;0.20;;
11263;SDS011;5689;48.798;9.070;2023-11-21T00:50:32;0.20;;;0.20;;
11263;SDS011;5689;48.798;9.070;2023-11-21T00:53:00;0.20;;;0.20;;
11263;SDS011;5689;48.798;9.070;2023-11-21T00:55:28;0.20;;;0.20;;
11263;SDS011;5689;48.798;9.070;2023-11-21T00:57:56;0.30;;;0.30;;
11263;SDS011;5689;48.798;9.070;2023-11-21T01:00:24;0.20;;;0.20;;
11263;SDS011;5689;48.798;9.070;2023-11-21T01:02:52;0.20;;;0.20;;
11263;SDS011;5689;48.798;9.070;2023-11-21T01:05:22;0.20;;;0.20;;
11263;SDS011;5689;48.798;9.070;2023-11-21T01:07:50;0.20;;;0.20;;
11263;SDS011;5689;48.798;9.070;2023-11-21T01:10:18;0.20;;;0.20;;
11263;SDS011;5689;48.798;9.070;2023-11-21T01:12:47;0.20;;;0.20;;
11263;SDS011;5689;48.798;9.070;2023-11-21T01:15:15;0.20;;;0.20;;
11263;SDS011;5689;48.798;9.070;2023-11-21T01:17:43;0.20;;;0.20;;
11263;SDS011;5689;48.798;9.070;2023-11-21T01:20:11;0.20;;;0.20;;
11263;SDS011;5689;48.798;9.070;2023-11-21T01:22:40;0.17;;;0.17;;
11263;SDS011;5689;48.798;9.070;2023-11-21T01:25:09;0.17;;;0.17;;
11263;SDS011;5689;48.798;9.070;2023-11-21T01:27:37;0.20;;;0.20;;
11263;SDS011;5689;48.798;9.070;2023-11-21T01:30:05;0.20;;;0.20;;
11263;SDS011;5689;48.798;9.070;2023-11-21T01:32:36;0.20;;;0.20;;
11263;SDS011;5689;48.798;9.070;2023-11-21T01:35:05;0.10;;;0.10;;
11263;SDS011;5689;48.798;9.070;2023-11-21T01:37:33;0.20;;;0.20;;
11263;SDS011;5689;48.798;9.070;2023-11-21T01:40:03;0.20;;;0.20;;
11263;SDS011;5689;48.798;9.070;2023-11-21T01:42:36;0.10;;;0.10;;
11263;SDS011;5689;48.798;9.070;2023-11-21T01:45:04;0.20;;;0.20;;
11263;SDS011;5689;48.798;9.070;2023-11-21T01:47:33;0.20;;;0.20;;
11263;SDS011;5689;48.798;9.070;2023-11-21T01:50:02;0.20;;;0.20;;
11263;SDS011;5689;48.798;9.070;2023-11-21T01:52:31;0.30;;;0.30;;
11263;SDS011;5689;48.798;9.070;2023-11-21T01:54:59;0.20;;;0.20;;
11263;SDS011;5689;48.798;9.070;2023-11-21T01:57:29;0.13;;;0.13;;
11263;SDS011;5689;48.798;9.070;2023-11-21T01:59:57;0.20;;;0.20;;
11263;SDS011;5689;48.798;9.070;2023-11-21T02:02:37;0.20;;;0.20;;
11263;SDS011;5689;48.798;9.070;2023-11-21T02:05:05;0.20;;;0.20;;
11263;SDS011;5689;48.798;9.070;2023-11-21T02:07:35;0.17;;;0.17;;
11263;SDS011;5689;48.798;9.070;2023-11-21T02:10:04;0.20;;;0.20;;
11263;SDS011;5689;48.798;9.070;2023-11-21T02:12:35;0.20;;;0.20;;
11263;SDS011;5689;48.798;9.070;2023-11-21T02:15:05;0.20;;;0.20;;
11263;SDS011;5689;48.798;9.070;2023-11-21T02:17:41;0.30;;;0.30;;
11263;SDS011;5689;48.798;9.070;2023-11-21T02:20:10;0.20;;;0.20;;
11263;SDS011;5689;48.798;9.070;2023-11-21T02:22:42;0.13;;;0.13;;
11263;SDS011;5689;48.798;9.070;2023-11-21T02:25:11;0.20;;;0.20;;
11263;SDS011;5689;48.798;9.070;2023-11-21T02:27:40;0.27;;;0.27;;
11263;SDS011;5689;48.798;9.070;2023-11-21T02:30:09;0.20;;;0.20;;
11263;SDS011;5689;48.798;9.070;2023-11-21T02:32:39;0.20;;;0.20;;
11263;SDS011;5689;48.798;9.070;2023-11-21T02:35:09;0.10;;;0.10;;
11263;SDS011;5689;48.798;9.070;2023-11-21T02:37:38;0.20;;;0.20;;
11263;SDS011;5689;48.798;9.070;2023-11-21T02:40:08;0.20;;;0.20;;
11263;SDS011;5689;48.798;9.070;2023-11-21T02:42:40;0.20;;;0.20;;
11263;SDS011;5689;48.798;9.070;2023-11-21T02:45:08;0.10;;;0.10;;
11263;SDS011;5689;48.798;9.070;2023-11-21T02:47:39;0.20;;;0.20;;
11263;SDS011;5689;48.798;9.070;2023-11-21T02:50:07;0.30;;;0.30;;
11263;SDS011;5689;48.798;9.070;2023-11-21T02:56:49;0.20;;;0.20;;
11263;SDS011;5689;48.798;9.070;2023-11-21T02:59:18;0.20;;;0.20;;
11263;SDS011;5689;48.798;9.070;2023-11-21T03:01:46;0.30;;;0.30;;
11263;SDS011;5689;48.798;9.070;2023-11-21T03:04:16;0.23;;;0.23;;
11263;SDS011;5689;48.798;9.070;2023-11-21T03:06:44;0.20;;;0.20;;
11263;SDS011;5689;48.798;9.070;2023-11-21T03:09:12;0.23;;;0.23;;
11263;SDS011;5689;48.798;9.070;2023-11-21T03:11:40;0.20;;;0.20;;
11263;SDS011;5689;48.798;9.070;2023-11-21T03:14:08;0.20;;;0.20;;
11263;SDS011;5689;48.798;9.070;2023-11-21T03:16:39;0.20;;;0.20;;
11263;SDS011;5689;48.798;9.070;2023-11-21T03:19:07;0.20;;;0.20;;
11263;SDS011;5689;48.798;9.070;2023-11-21T03:21:35;0.20;;;0.20;;
11263;SDS011;5689;48.798;9.070;2023-11-21T03:24:03;0.20;;;0.20;;
11263;SDS011;5689;48.798;9.070;2023-11-21T03:26:32;0.20;;;0.20;;
11263;SDS011;5689;48.798;9.070;2023-11-21T03:29:00;0.20;;;0.20;;
11263;SDS011;5689;48.798;9.070;2023-11-21T03:31:28;0.20;;;0.20;;
11263;SDS011;5689;48.798;9.070;2023-11-21T03:33:58;0.20;;;0.20;;
11263;SDS011;5689;48.798;9.070;2023-11-21T03:36:26;0.20;;;0.20;;
11263;SDS011;5689;48.798;9.070;2023-11-21T03:38:54;0.20;;;0.20;;
11263;SDS011;5689;48.798;9.070;2023-11-21T03:41:22;0.20;;;0.20;;
11263;SDS011;5689;48.798;9.070;2023-11-21T03:43:50;0.20;;;0.20;;
11263;SDS011;5689;48.798;9.070;2023-11-21T03:46:18;0.20;;;0.20;;
11263;SDS011;5689;48.798;9.070;2023-11-21T03:48:46;0.20;;;0.20;;
11263;SDS011;5689;48.798;9.070;2023-11-21T03:51:16;0.20;;;0.20;;
11263;SDS011;5689;48.798;9.070;2023-11-21T03:53:44;0.30;;;0.30;;
11263;SDS011;5689;48.798;9.070;2023-11-21T03:56:12;0.20;;;0.20;;
11263;SDS011;5689;48.798;9.070;2023-11-21T03:58:41;0.27;;;0.27;;
11263;SDS011;5689;48.798;9.070;2023-11-21T04:01:09;0.20;;;0.20;;
11263;SDS011;5689;48.798;9.070;2023-11-21T04:03:37;0.10;;;0.10;;
11263;SDS011;5689;48.798;9.070;2023-11-21T04:06:06;0.20;;;0.20;;
11263;SDS011;5689;48.798;9.070;2023-11-21T04:08:37;0.20;;;0.20;;
11263;SDS011;5689;48.798;9.070;2023-11-21T04:11:05;0.20;;;0.20;;
11263;SDS011;5689;48.798;9.070;2023-11-21T04:13:33;0.20;;;0.20;;
11263;SDS011;5689;48.798;9.070;2023-11-21T04:16:01;0.20;;;0.20;;
11263;SDS011;5689;48.798;9.070;2023-11-21T04:18:30;0.20;;;0.20;;
11263;SDS011;5689;48.798;9.070;2023-11-21T04:20:58;0.20;;;0.20;;
11263;SDS011;5689;48.798;9.070;2023-11-21T04:23:26;0.20;;;0.20;;
11263;SDS011;5689;48.798;9.070;2023-11-21T04:25:56;0.20;;;0.20;;
11263;SDS011;5689;48.798;9.070;2023-11-21T04:28:25;0.20;;;0.20;;
11263;SDS011;5689;48.798;9.070;2023-11-21T04:30:53;0.20;;;0.20;;
11263;SDS011;5689;48.798;9.070;2023-11-21T04:33:21;0.20;;;0.20;;
11263;SDS011;5689;48.798;9.070;2023-11-21T04:35:50;0.20;;;0.20;;
11263;SDS011;5689;48.798;9.070;2023-11-21T04:38:18;0.20;;;0.20;;
11263;SDS011;5689;48.798;9.070;2023-11-21T04:40:46;0.20;;;0.20;;
11263;SDS011;5689;48.798;9.070;2023-11-21T04:43:15;0.20;;;0.20;;
11263;SDS011;5689;48.798;9.070;2023-11-21T04:45:43;0.27;;;0.27;;
11263;SDS011;5689;48.798;9.070;2023-11-21T04:48:11;0.20;;;0.20;;
11263;SDS011;5689;48.798;9.070;2023-11-21T04:50:40;0.20;;;0.20;;
11263;SDS011;5689;48.798;9.070;2023-11-21T04:53:08;0.20;;;0.20;;
11263;SDS011;5689;48.798;9.070;2023-11-21T04:55:39;0.30;;;0.30;;
11263;SDS011;5689;48.798;9.070;2023-11-21T04:58:07;0.30;;;0.30;;
11263;SDS011;5689;48.798;9.070;2023-11-21T05:00:36;0.20;;;0.20;;
11263;SDS011;5689;48.798;9.070;2023-11-21T05:03:04;0.20;;;0.20;;
11263;SDS011;5689;48.798;9.070;2023-11-21T05:05:33;0.20;;;0.20;;
11263;SDS011;5689;48.798;9.070;2023-11-21T05:08:01;0.30;;;0.30;;
11263;SDS011;5689;48.798;9.070;2023-11-21T05:10:29;0.20;;;0.20;;
11263;SDS011;5689;48.798;9.070;2023-11-21T05:12:57;0.20;;;0.20;;
11263;SDS011;5689;48.798;9.070;2023-11-21T05:15:25;0.20;;;0.20;;
11263;SDS011;5689;48.798;9.070;2023-11-21T05:17:55;0.20;;;0.20;;
11263;SDS011;5689;48.798;9.070;2023-11-21T05:20:26;0.20;;;0.20;;
11263;SDS011;5689;48.798;9.070;2023-11-21T05:22:54;0.30;;;0.30;;
11263;SDS011;5689;48.798;9.070;2023-11-21T05:25:22;0.20;;;0.20;;
11263;SDS011;5689;48.798;9.070;2023-11-21T05:27:50;0.20;;;0.20;;
11263;SDS011;5689;48.798;9.070;2023-11-21T05:30:19;0.20;;;0.20;;
11263;SDS011;5689;48.798;9.070;2023-11-21T05:32:48;0.20;;;0.20;;
11263;SDS011;5689;48.798;9.070;2023-11-21T05:35:18;0.20;;;0.20;;
11263;SDS011;5689;48.798;9.070;2023-11-21T05:37:47;0.20;;;0.20;;
11263;SDS011;5689;48.798;9.070;2023-11-21T05:40:15;0.20;;;0.20;;
11263;SDS011;5689;48.798;9.070;2023-11-21T05:42:43;0.20;;;0.20;;
11263;SDS011;5689;48.798;9.070;2023-11-21T05:45:12;0.23;;;0.23;;
11263;SDS011;5689;48.798;9.070;2023-11-21T05:47:40;0.20;;;0.20;;
11263;SDS011;5689;48.798;9.070;2023-11-21T05:50:10;0.30;;;0.30;;
11263;SDS011;5689;48.798;9.070;2023-11-21T05:52:42;0.20;;;0.20;;
11263;SDS011;5689;48.798;9.070;2023-11-21T05:55:11;0.20;;;0.20;;
11263;SDS011;5689;48.798;9.070;2023-11-21T05:57:40;0.20;;;0.20;;
11263;SDS011;5689;48.798;9.070;2023-11-21T06:00:10;0.40;;;0.40;;
11263;SDS011;5689;48.798;9.070;2023-11-21T06:02:41;0.40;;;0.40;;
11263;SDS011;5689;48.798;9.070;2023-11-21T06:05:09;0.40;;;0.40;;
11263;SDS011;5689;48.798;9.070;2023-11-21T06:07:37;0.40;;;0.40;;
11263;SDS011;5689;48.798;9.070;2023-11-21T06:10:08;0.40;;;0.40;;
11263;SDS011;5689;48.798;9.070;2023-11-21T06:12:39;0.50;;;0.50;;
11263;SDS011;5689;48.798;9.070;2023-11-21T06:15:09;0.40;;;0.40;;
11263;SDS011;5689;48.798;9.070;2023-11-21T06:17:39;0.40;;;0.40;;
11263;SDS011;5689;48.798;9.070;2023-11-21T06:20:09;0.40;;;0.40;;
11263;SDS011;5689;48.798;9.070;2023-11-21T06:22:40;0.40;;;0.40;;
11263;SDS011;5689;48.798;9.070;2023-11-21T06:25:11;0.40;;;0.40;;
11263;SDS011;5689;48.798;9.070;2023-11-21T06:27:40;0.40;;;0.40;;
11263;SDS011;5689;48.798;9.070;2023-11-21T06:30:09;0.40;;;0.40;;
11263;SDS011;5689;48.798;9.070;2023-11-21T06:32:39;0.30;;;0.30;;
11263;SDS011;5689;48.798;9.070;2023-11-21T06:35:08;0.50;;;0.50;;
11263;SDS011;5689;48.798;9.070;2023-11-21T06:37:36;0.40;;;0.40;;
11263;SDS011;5689;48.798;9.070;2023-11-21T06:40:05;0.40;;;0.40;;
11263;SDS011;5689;48.798;9.070;2023-11-21T06:42:35;0.40;;;0.40;;
11263;SDS011;5689;48.798;9.070;2023-11-21T06:45:05;0.40;;;0.40;;
11263;SDS011;5689;48.798;9.070;2023-11-21T06:47:33;0.40;;;0.40;;
11263;SDS011;5689;48.798;9.070;2023-11-21T06:50:01;0.40;;;0.40;;
11263;SDS011;5689;48.798;9.070;2023-11-21T06:52:30;0.40;;;0.40;;
11263;SDS011;5689;48.798;9.070;2023-11-21T06:54:58;0.33;;;0.33;;
11263;SDS011;5689;48.798;9.070;2023-11-21T06:57:26;0.50;;;0.50;;
11263;SDS011;5689;48.798;9.070;2023-11-21T06:59:55;0.50;;;0.50;;
11263;SDS011;5689;48.798;9.070;2023-11-21T07:02:23;0.30;;;0.30;;
11263;SDS011;5689;48.798;9.070;2023-11-21T07:04:51;0.30;;;0.30;;
11263;SDS011;5689;48.798;9.070;2023-11-21T07:07:19;0.40;;;0.40;;
11263;SDS011;5689;48.798;9.070;2023-11-21T07:09:47;0.40;;;0.40;;
11263;SDS011;5689;48.798;9.070;2023-11-21T07:12:15;0.40;;;0.40;;
11263;SDS011;5689;48.798;9.070;2023-11-21T07:14:44;0.40;;;0.40;;
11263;SDS011;5689;48.798;9.070;2023-11-21T07:17:14;0.40;;;0.40;;
11263;SDS011;5689;48.798;9.070;2023-11-21T07:19:43;0.40;;;0.40;;
11263;SDS011;5689;48.798;9.070;2023-11-21T07:22:11;0.40;;;0.40;;
11263;SDS011;5689;48.798;9.070;2023-11-21T07:24:40;0.40;;;0.40;;
11263;SDS011;5689;48.798;9.070;2023-11-21T07:27:08;0.40;;;0.40;;
11263;SDS011;5689;48.798;9.070;2023-11-21T07:29:36;0.40;;;0.40;;
11263;SDS011;5689;48.798;9.070;2023-11-21T07:32:04;0.40;;;0.40;;
11263;SDS011;5689;48.798;9.070;2023-11-21T07:34:33;0.40;;;0.40;;
11263;SDS011;5689;48.798;9.070;2023-11-21T07:37:02;0.30;;;0.30;;
11263;SDS011;5689;48.798;9.070;2023-11-21T07:39:31;0.40;;;0.40;;
11263;SDS011;5689;48.798;9.070;2023-11-21T07:41:59;0.40;;;0.40;;
11263;SDS011;5689;48.798;9.070;2023-11-21T07:44:27;0.40;;;0.40;;
11263;SDS011;5689;48.798;9.070;2023-11-21T07:46:55;0.40;;;0.40;;
11263;SDS011;5689;48.798;9.070;2023-11-21T07:49:24;0.30;;;0.30;;
11263;SDS011;5689;48.798;9.070;2023-11-21T07:51:54;0.40;;;0.40;;
11263;SDS011;5689;48.798;9.070;2023-11-21T07:54:22;0.33;;;0.33;;
11263;SDS011;5689;48.798;9.070;2023-11-21T07:56:50;0.30;;;0.30;;
11263;SDS011;5689;48.798;9.070;2023-11-21T07:59:18;0.40;;;0.40;;
11263;SDS011;5689;48.798;9.070;2023-11-21T08:01:47;0.30;;;0.30;;
11263;SDS011;5689;48.798;9.070;2023-11-21T08:04:16;0.40;;;0.40;;
11263;SDS011;5689;48.798;9.070;2023-11-21T08:06:45;0.40;;;0.40;;
11263;SDS011;5689;48.798;9.070;2023-11-21T08:09:14;0.30;;;0.30;;
11263;SDS011;5689;48.798;9.070;2023-11-21T08:11:43;0.30;;;0.30;;
11263;SDS011;5689;48.798;9.070;2023-11-21T08:14:13;0.30;;;0.30;;
11263;SDS011;5689;48.798;9.070;2023-11-21T08:16:41;0.30;;;0.30;;
11263;SDS011;5689;48.798;9.070;2023-11-21T08:19:10;0.30;;;0.30;;
11263;SDS011;5689;48.798;9.070;2023-11-21T08:21:38;0.40;;;0.40;;
11263;SDS011;5689;48.798;9.070;2023-11-21T08:24:07;0.30;;;0.30;;
11263;SDS011;5689;48.798;9.070;2023-11-21T08:26:38;0.30;;;0.30;;
11263;SDS011;5689;48.798;9.070;2023-11-21T08:29:06;0.30;;;0.30;;
11263;SDS011;5689;48.798;9.070;2023-11-21T08:31:35;0.20;;;0.20;;
11263;SDS011;5689;48.798;9.070;2023-11-21T08:34:04;0.30;;;0.30;;
11263;SDS011;5689;48.798;9.070;2023-11-21T08:36:32;0.30;;;0.30;;
11263;SDS011;5689;48.798;9.070;2023-11-21T08:39:00;0.30;;;0.30;;
11263;SDS011;5689;48.798;9.070;2023-11-21T08:41:28;0.30;;;0.30;;
11263;SDS011;5689;48.798;9.070;2023-11-21T08:43:58;0.30;;;0.30;;
11263;SDS011;5689;48.798;9.070;2023-11-21T08:46:26;0.25;;;0.25;;
11263;SDS011;5689;48.798;9.070;2023-11-21T08:48:54;0.28;;;0.28;;
11263;SDS011;5689;48.798;9.070;2023-11-21T08:51:22;0.30;;;0.30;;
11263;SDS011;5689;48.798;9.070;2023-11-21T08:53:50;0.30;;;0.30;;
11263;SDS011;5689;48.798;9.070;2023-11-21T08:56:18;0.32;;;0.32;;
11263;SDS011;5689;48.798;9.070;2023-11-21T08:58:47;0.35;;;0.35;;
11263;SDS011;5689;48.798;9.070;2023-11-21T09:01:18;0.30;;;0.30;;
11263;SDS011;5689;48.798;9.070;2023-11-21T09:03:46;0.20;;;0.20;;
11263;SDS011;5689;48.798;9.070;2023-11-21T09:06:14;0.30;;;0.30;;
11263;SDS011;5689;48.798;9.070;2023-11-21T09:08:42;0.20;;;0.20;;
11263;SDS011;5689;48.798;9.070;2023-11-21T09:11:10;0.30;;;0.30;;
11263;SDS011;5689;48.798;9.070;2023-11-21T09:13:38;0.35;;;0.35;;
11263;SDS011;5689;48.798;9.070;2023-11-21T09:16:06;0.30;;;0.30;;
11263;SDS011;5689;48.798;9.070;2023-11-21T09:18:36;0.30;;;0.30;;
11263;SDS011;5689;48.798;9.070;2023-11-21T09:21:04;0.30;;;0.30;;
11263;SDS011;5689;48.798;9.070;2023-11-21T09:23:32;0.30;;;0.30;;
11263;SDS011;5689;48.798;9.070;2023-11-21T09:26:00;0.30;;;0.30;;
11263;SDS011;5689;48.798;9.070;2023-11-21T09:28:28;0.40;;;0.40;;
11263;SDS011;5689;48.798;9.070;2023-11-21T09:30:57;0.30;;;0.30;;
11263;SDS011;5689;48.798;9.070;2023-11-21T09:33:24;0.30;;;0.30;;
11263;SDS011;5689;48.798;9.070;2023-11-21T09:35:54;0.40;;;0.40;;
11263;SDS011;5689;48.798;9.070;2023-11-21T09:38:22;0.40;;;0.40;;
11263;SDS011;5689;48.798;9.070;2023-11-21T09:40:50;0.33;;;0.33;;
11263;SDS011;5689;48.798;9.070;2023-11-21T09:43:20;0.30;;;0.30;;
11263;SDS011;5689;48.798;9.070;2023-11-21T09:45:51;0.30;;;0.30;;
11263;SDS011;5689;48.798;9.070;2023-11-21T09:48:24;0.30;;;0.30;;
11263;SDS011;5689;48.798;9.070;2023-11-21T09:50:55;0.30;;;0.30;;
11263;SDS011;5689;48.798;9.070;2023-11-21T09:53:23;0.40;;;0.40;;
11263;SDS011;5689;48.798;9.070;2023-11-21T09:55:54;0.35;;;0.35;;
11263;SDS011;5689;48.798;9.070;2023-11-21T09:58:22;0.40;;;0.40;;
11263;SDS011;5689;48.798;9.070;2023-11-21T10:00:52;0.37;;;0.37;;
11263;SDS011;5689;48.798;9.070;2023-11-21T10:03:22;0.40;;;0.40;;
11263;SDS011;5689;48.798;9.070;2023-11-21T10:05:50;0.40;;;0.40;;
11263;SDS011;5689;48.798;9.070;2023-11-21T10:08:25;0.40;;;0.40;;
11263;SDS011;5689;48.798;9.070;2023-11-21T10:10:58;0.30;;;0.30;;
11263;SDS011;5689;48.798;9.070;2023-11-21T10:13:27;0.40;;;0.40;;
11263;SDS011;5689;48.798;9.070;2023-11-21T10:15:57;0.32;;;0.32;;
11263;SDS011;5689;48.798;9.070;2023-11-21T10:18:26;0.40;;;0.40;;
11263;SDS011;5689;48.798;9.070;2023-11-21T10:20:55;0.30;;;0.30;;
11263;SDS011;5689;48.798;9.070;2023-11-21T10:23:24;0.30;;;0.30;;
11263;SDS011;5689;48.798;9.070;2023-11-21T10:25:52;0.40;;;0.40;;
11263;SDS011;5689;48.798;9.070;2023-11-21T10:28:21;0.40;;;0.40;;
11263;SDS011;5689;48.798;9.070;2023-11-21T10:30:49;0.30;;;0.30;;
11263;SDS011;5689;48.798;9.070;2023-11-21T10:33:18;0.30;;;0.30;;
11263;SDS011;5689;48.798;9.070;2023-11-21T10:35:56;0.30;;;0.30;;
11263;SDS011;5689;48.798;9.070;2023-11-21T10:38:24;0.30;;;0.30;;
11263;SDS011;5689;48.798;9.070;2023-11-21T10:40:54;0.40;;;0.40;;
11263;SDS011;5689;48.798;9.070;2023-11-21T10:43:24;0.30;;;0.30;;
11263;SDS011;5689;48.798;9.070;2023-11-21T10:45:54;0.40;;;0.40;;
11263;SDS011;5689;48.798;9.070;2023-11-21T10:48:25;0.30;;;0.30;;
11263;SDS011;5689;48.798;9.070;2023-11-21T10:50:53;0.40;;;0.40;;
11263;SDS011;5689;48.798;9.070;2023-11-21T10:53:24;0.30;;;0.30;;
11263;SDS011;5689;48.798;9.070;2023-11-21T10:56:01;0.30;;;0.30;;
11263;SDS011;5689;48.798;9.070;2023-11-21T10:58:32;0.40;;;0.40;;
11263;SDS011;5689;48.798;9.070;2023-11-21T11:01:02;0.30;;;0.30;;
11263;SDS011;5689;48.798;9.070;2023-11-21T11:03:34;0.30;;;0.30;;
11263;SDS011;5689;48.798;9.070;2023-11-21T11:06:04;0.30;;;0.30;;
11263;SDS011;5689;48.798;9.070;2023-11-21T11:08:39;0.30;;;0.30;;
11263;SDS011;5689;48.798;9.070;2023-11-21T11:11:07;0.30;;;0.30;;
11263;SDS011;5689;48.798;9.070;2023-11-21T11:13:39;0.30;;;0.30;;
11263;SDS011;5689;48.798;9.070;2023-11-21T11:16:11;0.32;;;0.32;;
11263;SDS011;5689;48.798;9.070;2023-11-21T11:18:43;0.40;;;0.40;;
11263;SDS011;5689;48.798;9.070;2023-11-21T11:21:16;0.40;;;0.40;;
11263;SDS011;5689;48.798;9.070;2023-11-21T11:23:58;0.20;;;0.20;;
11263;SDS011;5689;48.798;9.070;2023-11-21T11:26:41;0.30;;;0.30;;
11263;SDS011;5689;48.798;9.070;2023-11-21T11:29:14;0.20;;;0.20;;
11263;SDS011;5689;48.798;9.070;2023-11-21T11:31:54;0.30;;;0.30;;
11263;SDS011;5689;48.798;9.070;2023-11-21T11:34:32;0.28;;;0.28;;
11263;SDS011;5689;48.798;9.070;2023-11-21T11:37:05;0.35;;;0.35;;
11263;SDS011;5689;48.798;9.070;2023-11-21T11:39:37;0.20;;;0.20;;
11263;SDS011;5689;48.798;9.070;2023-11-21T11:42:08;0.30;;;0.30;;
11263;SDS011;5689;48.798;9.070;2023-11-21T11:44:50;0.40;;;0.40;;
11263;SDS011;5689;48.798;9.070;2023-11-21T11:47:22;0.30;;;0.30;;
11263;SDS011;5689;48.798;9.070;2023-11-21T11:50:00;0.30;;;0.30;;
11263;SDS011;5689;48.798;9.070;2023-11-21T11:52:34;0.30;;;0.30;;
11263;SDS011;5689;48.798;9.070;2023-11-21T11:55:05;0.30;;;0.30;;
11263;SDS011;5689;48.798;9.070;2023-11-21T11:57:36;0.20;;;0.20;;
11263;SDS011;5689;48.798;9.070;2023-11-21T12:00:09;0.30;;;0.30;;
11263;SDS011;5689;48.798;9.070;2023-11-21T12:02:42;0.30;;;0.30;;
11263;SDS011;5689;48.798;9.070;2023-11-21T12:05:14;0.30;;;0.30;;
11263;SDS011;5689;48.798;9.070;2023-11-21T12:07:46;0.30;;;0.30;;
11263;SDS011;5689;48.798;9.070;2023-11-21T12:10:18;0.40;;;0.40;;
11263;SDS011;5689;48.798;9.070;2023-11-21T12:12:48;0.30;;;0.30;;
11263;SDS011;5689;48.798;9.070;2023-11-21T12:15:16;0.40;;;0.40;;
11263;SDS011;5689;48.798;9.070;2023-11-21T12:17:45;0.33;;;0.33;;
11263;SDS011;5689;48.798;9.070;2023-11-21T12:20:14;0.40;;;0.40;;
11263;SDS011;5689;48.798;9.070;2023-11-21T12:22:45;0.30;;;0.30;;
11263;SDS011;5689;48.798;9.070;2023-11-21T12:25:19;0.40;;;0.40;;
11263;SDS011;5689;48.798;9.070;2023-11-21T12:27:48;0.30;;;0.30;;
11263;SDS011;5689;48.798;9.070;2023-11-21T12:30:17;0.32;;;0.32;;
11263;SDS011;5689;48.798;9.070;2023-11-21T12:32:48;0.30;;;0.30;;
11263;SDS011;5689;48.798;9.070;2023-11-21T12:35:18;0.30;;;0.30;;
11263;SDS011;5689;48.798;9.070;2023-11-21T12:37:47;0.40;;;0.40;;
11263;SDS011;5689;48.798;9.070;2023-11-21T12:40:17;0.38;;;0.38;;
11263;SDS011;5689;48.798;9.070;2023-11-21T12:42:51;0.35;;;0.35;;
11263;SDS011;5689;48.798;9.070;2023-11-21T12:45:21;0.30;;;0.30;;
11263;SDS011;5689;48.798;9.070;2023-11-21T12:47:52;0.30;;;0.30;;
11263;SDS011;5689;48.798;9.070;2023-11-21T12:50:24;0.30;;;0.30;;
11263;SDS011;5689;48.798;9.070;2023-11-21T12:52:57;0.32;;;0.32;;
11263;SDS011;5689;48.798;9.070;2023-11-21T12:55:29;0.20;;;0.20;;
11263;SDS011;5689;48.798;9.070;2023-11-21T12:58:00;0.40;;;0.40;;
11263;SDS011;5689;48.798;9.070;2023-11-21T13:00:35;0.30;;;0.30;;
11263;SDS011;5689;48.798;9.070;2023-11-21T13:03:05;0.30;;;0.30;;
11263;SDS011;5689;48.798;9.070;2023-11-21T13:05:34;0.30;;;0.30;;
11263;SDS011;5689;48.798;9.070;2023-11-21T13:08:06;0.30;;;0.30;;
11263;SDS011;5689;48.798;9.070;2023-11-21T13:10:38;0.30;;;0.30;;
11263;SDS011;5689;48.798;9.070;2023-11-21T13:13:09;0.40;;;0.40;;
11263;SDS011;5689;48.798;9.070;2023-11-21T13:15:47;0.40;;;0.40;;
11263;SDS011;5689;48.798;9.070;2023-11-21T13:18:15;0.50;;;0.50;;
11263;SDS011;5689;48.798;9.070;2023-11-21T13:20:44;0.33;;;0.33;;
11263;SDS011;5689;48.798;9.070;2023-11-21T13:23:12;0.40;;;0.40;;
11263;SDS011;5689;48.798;9.070;2023-11-21T13:25:43;0.43;;;0.43;;
11263;SDS011;5689;48.798;9.070;2023-11-21T13:28:16;0.40;;;0.40;;
11263;SDS011;5689;48.798;9.070;2023-11-21T13:30:44;0.40;;;0.40;;
11263;SDS011;5689;48.798;9.070;2023-11-21T13:33:13;0.30;;;0.30;;
11263;SDS011;5689;48.798;9.070;2023-11-21T13:35:44;0.40;;;0.40;;
11263;SDS011;5689;48.798;9.070;2023-11-21T13:38:15;0.30;;;0.30;;
11263;SDS011;5689;48.798;9.070;2023-11-21T13:40:46;0.40;;;0.40;;
11263;SDS011;5689;48.798;9.070;2023-11-21T13:43:16;0.47;;;0.47;;
11263;SDS011;5689;48.798;9.070;2023-11-21T13:45:47;0.40;;;0.40;;
11263;SDS011;5689;48.798;9.070;2023-11-21T13:48:17;0.47;;;0.47;;
11263;SDS011;5689;48.798;9.070;2023-11-21T13:50:54;0.30;;;0.30;;
11263;SDS011;5689;48.798;9.070;2023-11-21T13:53:25;0.30;;;0.30;;
11263;SDS011;5689;48.798;9.070;2023-11-21T13:55:54;0.30;;;0.30;;
11263;SDS011;5689;48.798;9.070;2023-11-21T13:58:24;0.30;;;0.30;;
11263;SDS011;5689;48.798;9.070;2023-11-21T14:01:06;0.30;;;0.30;;
11263;SDS011;5689;48.798;9.070;2023-11-21T14:03:43;0.30;;;0.30;;
11263;SDS011;5689;48.798;9.070;2023-11-21T14:06:18;0.33;;;0.33;;
11263;SDS011;5689;48.798;9.070;2023-11-21T14:08:51;0.30;;;0.30;;
11263;SDS011;5689;48.798;9.070;2023-11-21T14:11:24;0.30;;;0.30;;
11263;SDS011;5689;48.798;9.070;2023-11-21T14:13:53;0.30;;;0.30;;
11263;SDS011;5689;48.798;9.070;2023-11-21T14:16:21;0.30;;;0.30;;
11263;SDS011;5689;48.798;9.070;2023-11-21T14:18:49;0.38;;;0.38;;
11263;SDS011;5689;48.798;9.070;2023-11-21T14:21:22;0.30;;;0.30;;
11263;SDS011;5689;48.798;9.070;2023-11-21T14:23:50;0.33;;;0.33;;
11263;SDS011;5689;48.798;9.070;2023-11-21T14:26:18;0.40;;;0.40;;
11263;SDS011;5689;48.798;9.070;2023-11-21T14:28:48;0.30;;;0.30;;
11263;SDS011;5689;48.798;9.070;2023-11-21T14:31:17;0.30;;;0.30;;
11263;SDS011;5689;48.798;9.070;2023-11-21T14:33:45;0.30;;;0.30;;
11263;SDS011;5689;48.798;9.070;2023-11-21T14:36:13;0.30;;;0.30;;
11263;SDS011;5689;48.798;9.070;2023-11-21T14:38:43;0.30;;;0.30;;
11263;SDS011;5689;48.798;9.070;2023-11-21T14:41:11;0.30;;;0.30;;
11263;SDS011;5689;48.798;9.070;2023-11-21T14:43:40;0.35;;;0.35;;
11263;SDS011;5689;48.798;9.070;2023-11-21T14:46:10;0.30;;;0.30;;
11263;SDS011;5689;48.798;9.070;2023-11-21T14:48:42;0.30;;;0.30;;
11263;SDS011;5689;48.798;9.070;2023-11-21T14:51:13;0.30;;;0.30;;
11263;SDS011;5689;48.798;9.070;2023-11-21T14:53:56;0.40;;;0.40;;
11263;SDS011;5689;48.798;9.070;2023-11-21T14:56:31;0.30;;;0.30;;
11263;SDS011;5689;48.798;9.070;2023-11-21T14:59:01;0.40;;;0.40;;
11263;SDS011;5689;48.798;9.070;2023-11-21T15:01:34;0.30;;;0.30;;
11263;SDS011;5689;48.798;9.070;2023-11-21T15:04:12;0.30;;;0.30;;
11263;SDS011;5689;48.798;9.070;2023-11-21T15:06:47;0.30;;;0.30;;
11263;SDS011;5689;48.798;9.070;2023-11-21T15:09:15;0.40;;;0.40;;
11263;SDS011;5689;48.798;9.070;2023-11-21T15:12:01;0.35;;;0.35;;
11263;SDS011;5689;48.798;9.070;2023-11-21T15:14:40;0.40;;;0.40;;
11263;SDS011;5689;48.798;9.070;2023-11-21T15:17:10;0.40;;;0.40;;
11263;SDS011;5689;48.798;9.070;2023-11-21T15:19:42;0.30;;;0.30;;